sensor_id;sensor_type;location;lat;lon;timestamp;P1;durP1;ratioP1;P2;durP2;ratioP2
55575;SDS011;41437;45.478;9.116;2023-01-28T00:02:51;22.42;;;12.00;;
55575;SDS011;41437;45.478;9.116;2023-01-28T00:06:00;24.15;;;13.05;;
55575;SDS011;41437;45.478;9.116;2023-01-28T00:09:02;24.88;;;13.65;;
55575;SDS011;41437;45.478;9.116;2023-01-28T00:12:04;23.48;;;13.02;;
55575;SDS011;41437;45.478;9.116;2023-01-28T00:15:06;27.35;;;13.23;;
55575;SDS011;41437;45.478;9.116;2023-01-28T00:18:09;22.55;;;12.55;;
55575;SDS011;41437;45.478;9.116;2023-01-28T00:21:12;24.42;;;12.30;;
55575;SDS011;41437;45.478;9.116;2023-01-28T00:24:15;26.85;;;13.75;;
55575;SDS011;41437;45.478;9.116;2023-01-28T00:27:17;27.92;;;13.50;;
55575;SDS011;41437;45.478;9.116;2023-01-28T00:30:19;27.52;;;13.90;;
55575;SDS011;41437;45.478;9.116;2023-01-28T00:33:21;26.40;;;14.60;;
55575;SDS011;41437;45.478;9.116;2023-01-28T00:36:24;28.70;;;14.77;;
55575;SDS011;41437;45.478;9.116;2023-01-28T00:42:28;30.23;;;14.18;;
55575;SDS011;41437;45.478;9.116;2023-01-28T00:45:29;31.08;;;15.07;;
55575;SDS011;41437;45.478;9.116;2023-01-28T00:48:31;29.52;;;14.90;;
55575;SDS011;41437;45.478;9.116;2023-01-28T00:51:34;29.65;;;15.30;;
55575;SDS011;41437;45.478;9.116;2023-01-28T00:54:36;32.20;;;16.48;;
55575;SDS011;41437;45.478;9.116;2023-01-28T00:57:37;32.50;;;15.40;;
55575;SDS011;41437;45.478;9.116;2023-01-28T01:00:39;29.73;;;14.20;;
55575;SDS011;41437;45.478;9.116;2023-01-28T01:03:41;28.60;;;14.70;;
55575;SDS011;41437;45.478;9.116;2023-01-28T01:06:44;35.17;;;17.58;;
55575;SDS011;41437;45.478;9.116;2023-01-28T01:09:46;33.60;;;15.63;;
55575;SDS011;41437;45.478;9.116;2023-01-28T01:12:47;26.17;;;15.30;;
55575;SDS011;41437;45.478;9.116;2023-01-28T01:15:50;29.77;;;15.60;;
55575;SDS011;41437;45.478;9.116;2023-01-28T01:19:00;32.60;;;15.93;;
55575;SDS011;41437;45.478;9.116;2023-01-28T01:22:03;33.28;;;17.05;;
55575;SDS011;41437;45.478;9.116;2023-01-28T01:25:05;33.90;;;16.52;;
55575;SDS011;41437;45.478;9.116;2023-01-28T01:28:09;35.35;;;18.20;;
55575;SDS011;41437;45.478;9.116;2023-01-28T01:31:11;35.38;;;17.58;;
55575;SDS011;41437;45.478;9.116;2023-01-28T01:34:14;30.02;;;16.02;;
55575;SDS011;41437;45.478;9.116;2023-01-28T01:37:17;34.22;;;17.38;;
55575;SDS011;41437;45.478;9.116;2023-01-28T01:40:18;32.40;;;16.80;;
55575;SDS011;41437;45.478;9.116;2023-01-28T01:43:21;31.90;;;16.58;;
55575;SDS011;41437;45.478;9.116;2023-01-28T01:46:25;33.05;;;17.92;;
55575;SDS011;41437;45.478;9.116;2023-01-28T01:49:32;35.97;;;19.05;;
55575;SDS011;41437;45.478;9.116;2023-01-28T01:52:35;32.33;;;16.33;;
55575;SDS011;41437;45.478;9.116;2023-01-28T01:55:38;28.48;;;16.20;;
55575;SDS011;41437;45.478;9.116;2023-01-28T01:58:44;33.80;;;18.83;;
55575;SDS011;41437;45.478;9.116;2023-01-28T02:01:50;35.30;;;17.95;;
55575;SDS011;41437;45.478;9.116;2023-01-28T02:04:53;35.22;;;17.67;;
55575;SDS011;41437;45.478;9.116;2023-01-28T02:07:57;31.05;;;17.20;;
55575;SDS011;41437;45.478;9.116;2023-01-28T02:11:20;31.63;;;17.80;;
55575;SDS011;41437;45.478;9.116;2023-01-28T02:14:23;31.77;;;16.53;;
55575;SDS011;41437;45.478;9.116;2023-01-28T02:17:28;31.08;;;17.15;;
55575;SDS011;41437;45.478;9.116;2023-01-28T02:20:33;34.55;;;17.98;;
55575;SDS011;41437;45.478;9.116;2023-01-28T02:23:47;30.83;;;17.27;;
55575;SDS011;41437;45.478;9.116;2023-01-28T02:27:12;31.52;;;17.27;;
55575;SDS011;41437;45.478;9.116;2023-01-28T02:30:21;32.70;;;17.35;;
55575;SDS011;41437;45.478;9.116;2023-01-28T02:33:29;29.35;;;16.67;;
55575;SDS011;41437;45.478;9.116;2023-01-28T02:36:37;33.30;;;17.70;;
55575;SDS011;41437;45.478;9.116;2023-01-28T02:39:44;29.88;;;16.10;;
55575;SDS011;41437;45.478;9.116;2023-01-28T02:42:49;31.63;;;16.58;;
55575;SDS011;41437;45.478;9.116;2023-01-28T02:45:53;30.33;;;16.80;;
55575;SDS011;41437;45.478;9.116;2023-01-28T02:49:13;32.67;;;17.30;;
55575;SDS011;41437;45.478;9.116;2023-01-28T02:56:01;34.72;;;18.45;;
55575;SDS011;41437;45.478;9.116;2023-01-28T02:59:12;31.70;;;16.67;;
55575;SDS011;41437;45.478;9.116;2023-01-28T03:02:33;27.67;;;16.10;;
55575;SDS011;41437;45.478;9.116;2023-01-28T03:05:41;34.83;;;18.85;;
55575;SDS011;41437;45.478;9.116;2023-01-28T03:09:03;34.08;;;17.52;;
55575;SDS011;41437;45.478;9.116;2023-01-28T03:12:26;33.95;;;17.90;;
55575;SDS011;41437;45.478;9.116;2023-01-28T03:15:48;35.53;;;18.50;;
55575;SDS011;41437;45.478;9.116;2023-01-28T03:19:10;36.08;;;18.63;;
55575;SDS011;41437;45.478;9.116;2023-01-28T03:22:31;35.33;;;19.30;;
55575;SDS011;41437;45.478;9.116;2023-01-28T03:25:55;33.22;;;18.73;;
55575;SDS011;41437;45.478;9.116;2023-01-28T03:29:18;33.90;;;17.67;;
55575;SDS011;41437;45.478;9.116;2023-01-28T03:32:39;34.33;;;17.85;;
55575;SDS011;41437;45.478;9.116;2023-01-28T03:36:01;32.40;;;17.52;;
55575;SDS011;41437;45.478;9.116;2023-01-28T03:39:22;34.25;;;18.00;;
55575;SDS011;41437;45.478;9.116;2023-01-28T03:42:26;34.78;;;17.13;;
55575;SDS011;41437;45.478;9.116;2023-01-28T03:45:27;34.63;;;18.40;;
55575;SDS011;41437;45.478;9.116;2023-01-28T03:48:29;32.75;;;17.58;;
55575;SDS011;41437;45.478;9.116;2023-01-28T03:51:32;37.75;;;18.95;;
55575;SDS011;41437;45.478;9.116;2023-01-28T03:54:34;35.80;;;18.42;;
55575;SDS011;41437;45.478;9.116;2023-01-28T03:57:35;33.92;;;19.60;;
55575;SDS011;41437;45.478;9.116;2023-01-28T04:00:37;35.78;;;18.95;;
55575;SDS011;41437;45.478;9.116;2023-01-28T04:03:42;34.92;;;17.55;;
55575;SDS011;41437;45.478;9.116;2023-01-28T04:06:45;34.75;;;19.13;;
55575;SDS011;41437;45.478;9.116;2023-01-28T04:09:46;34.58;;;18.40;;
55575;SDS011;41437;45.478;9.116;2023-01-28T04:12:48;35.67;;;18.25;;
55575;SDS011;41437;45.478;9.116;2023-01-28T04:15:50;36.13;;;18.77;;
55575;SDS011;41437;45.478;9.116;2023-01-28T04:18:52;38.80;;;19.50;;
55575;SDS011;41437;45.478;9.116;2023-01-28T04:21:55;40.25;;;19.77;;
55575;SDS011;41437;45.478;9.116;2023-01-28T04:24:57;35.72;;;18.73;;
55575;SDS011;41437;45.478;9.116;2023-01-28T04:27:58;33.83;;;18.45;;
55575;SDS011;41437;45.478;9.116;2023-01-28T04:31:00;36.92;;;19.25;;
55575;SDS011;41437;45.478;9.116;2023-01-28T04:34:02;38.72;;;19.95;;
55575;SDS011;41437;45.478;9.116;2023-01-28T04:37:05;35.65;;;19.80;;
55575;SDS011;41437;45.478;9.116;2023-01-28T04:40:07;32.22;;;18.77;;
55575;SDS011;41437;45.478;9.116;2023-01-28T04:43:09;37.08;;;19.88;;
55575;SDS011;41437;45.478;9.116;2023-01-28T04:46:10;36.53;;;20.58;;
55575;SDS011;41437;45.478;9.116;2023-01-28T04:49:12;36.25;;;19.13;;
55575;SDS011;41437;45.478;9.116;2023-01-28T04:52:15;35.90;;;20.55;;
55575;SDS011;41437;45.478;9.116;2023-01-28T04:55:16;37.92;;;19.63;;
55575;SDS011;41437;45.478;9.116;2023-01-28T04:58:18;34.88;;;20.17;;
55575;SDS011;41437;45.478;9.116;2023-01-28T05:01:20;38.83;;;19.33;;
55575;SDS011;41437;45.478;9.116;2023-01-28T05:04:22;36.42;;;19.55;;
55575;SDS011;41437;45.478;9.116;2023-01-28T05:07:24;34.50;;;19.33;;
55575;SDS011;41437;45.478;9.116;2023-01-28T05:10:26;31.83;;;18.63;;
55575;SDS011;41437;45.478;9.116;2023-01-28T05:13:28;36.35;;;18.55;;
55575;SDS011;41437;45.478;9.116;2023-01-28T05:16:29;34.38;;;19.05;;
55575;SDS011;41437;45.478;9.116;2023-01-28T05:19:33;36.80;;;19.60;;
55575;SDS011;41437;45.478;9.116;2023-01-28T05:22:36;34.35;;;19.45;;
55575;SDS011;41437;45.478;9.116;2023-01-28T05:25:37;39.70;;;19.73;;
55575;SDS011;41437;45.478;9.116;2023-01-28T05:28:39;35.65;;;19.30;;
55575;SDS011;41437;45.478;9.116;2023-01-28T05:31:41;37.97;;;20.02;;
55575;SDS011;41437;45.478;9.116;2023-01-28T05:34:42;37.95;;;19.95;;
55575;SDS011;41437;45.478;9.116;2023-01-28T05:37:45;35.90;;;20.02;;
55575;SDS011;41437;45.478;9.116;2023-01-28T05:40:49;33.90;;;18.67;;
55575;SDS011;41437;45.478;9.116;2023-01-28T05:43:51;32.88;;;18.50;;
55575;SDS011;41437;45.478;9.116;2023-01-28T05:46:52;36.72;;;20.02;;
55575;SDS011;41437;45.478;9.116;2023-01-28T05:49:53;36.17;;;20.30;;
55575;SDS011;41437;45.478;9.116;2023-01-28T05:52:56;37.58;;;19.48;;
55575;SDS011;41437;45.478;9.116;2023-01-28T05:55:58;36.15;;;19.30;;
55575;SDS011;41437;45.478;9.116;2023-01-28T05:58:59;35.25;;;19.35;;
55575;SDS011;41437;45.478;9.116;2023-01-28T06:02:01;37.33;;;20.05;;
55575;SDS011;41437;45.478;9.116;2023-01-28T06:05:03;34.60;;;19.73;;
55575;SDS011;41437;45.478;9.116;2023-01-28T06:08:07;34.60;;;20.23;;
55575;SDS011;41437;45.478;9.116;2023-01-28T06:11:09;36.53;;;19.98;;
55575;SDS011;41437;45.478;9.116;2023-01-28T06:14:10;38.25;;;19.80;;
55575;SDS011;41437;45.478;9.116;2023-01-28T06:17:12;38.58;;;20.13;;
55575;SDS011;41437;45.478;9.116;2023-01-28T06:20:14;39.90;;;21.35;;
55575;SDS011;41437;45.478;9.116;2023-01-28T06:23:18;33.38;;;19.45;;
55575;SDS011;41437;45.478;9.116;2023-01-28T06:26:19;39.80;;;21.52;;
55575;SDS011;41437;45.478;9.116;2023-01-28T06:29:21;45.05;;;22.17;;
55575;SDS011;41437;45.478;9.116;2023-01-28T06:32:22;44.38;;;22.23;;
55575;SDS011;41437;45.478;9.116;2023-01-28T06:35:24;46.40;;;22.95;;
55575;SDS011;41437;45.478;9.116;2023-01-28T06:38:27;46.95;;;22.50;;
55575;SDS011;41437;45.478;9.116;2023-01-28T06:41:28;42.65;;;23.30;;
55575;SDS011;41437;45.478;9.116;2023-01-28T06:44:30;43.08;;;22.30;;
55575;SDS011;41437;45.478;9.116;2023-01-28T06:47:31;44.92;;;22.52;;
55575;SDS011;41437;45.478;9.116;2023-01-28T06:50:33;43.88;;;22.33;;
55575;SDS011;41437;45.478;9.116;2023-01-28T06:53:36;44.40;;;21.55;;
55575;SDS011;41437;45.478;9.116;2023-01-28T06:56:37;42.78;;;21.65;;
55575;SDS011;41437;45.478;9.116;2023-01-28T06:59:39;43.75;;;21.45;;
55575;SDS011;41437;45.478;9.116;2023-01-28T07:02:40;39.47;;;20.85;;
55575;SDS011;41437;45.478;9.116;2023-01-28T07:05:42;42.15;;;21.05;;
55575;SDS011;41437;45.478;9.116;2023-01-28T07:08:45;44.28;;;22.05;;
55575;SDS011;41437;45.478;9.116;2023-01-28T07:11:47;42.40;;;21.57;;
55575;SDS011;41437;45.478;9.116;2023-01-28T07:14:48;42.00;;;21.15;;
55575;SDS011;41437;45.478;9.116;2023-01-28T07:17:50;38.72;;;20.40;;
55575;SDS011;41437;45.478;9.116;2023-01-28T07:20:52;40.95;;;21.65;;
55575;SDS011;41437;45.478;9.116;2023-01-28T07:23:54;43.28;;;21.70;;
55575;SDS011;41437;45.478;9.116;2023-01-28T07:26:56;37.17;;;19.50;;
55575;SDS011;41437;45.478;9.116;2023-01-28T07:29:58;40.47;;;19.60;;
55575;SDS011;41437;45.478;9.116;2023-01-28T07:33:00;36.35;;;20.00;;
55575;SDS011;41437;45.478;9.116;2023-01-28T07:36:01;38.80;;;20.60;;
55575;SDS011;41437;45.478;9.116;2023-01-28T07:39:05;43.25;;;21.80;;
55575;SDS011;41437;45.478;9.116;2023-01-28T07:45:09;36.50;;;20.08;;
55575;SDS011;41437;45.478;9.116;2023-01-28T07:48:11;37.53;;;21.17;;
55575;SDS011;41437;45.478;9.116;2023-01-28T07:51:13;40.97;;;21.65;;
55575;SDS011;41437;45.478;9.116;2023-01-28T07:54:16;38.28;;;20.73;;
55575;SDS011;41437;45.478;9.116;2023-01-28T07:57:18;42.70;;;22.23;;
55575;SDS011;41437;45.478;9.116;2023-01-28T08:03:24;42.35;;;20.70;;
55575;SDS011;41437;45.478;9.116;2023-01-28T08:06:27;37.50;;;20.90;;
55575;SDS011;41437;45.478;9.116;2023-01-28T08:09:30;38.33;;;20.70;;
55575;SDS011;41437;45.478;9.116;2023-01-28T08:12:33;46.63;;;21.67;;
55575;SDS011;41437;45.478;9.116;2023-01-28T08:15:34;43.60;;;22.30;;
55575;SDS011;41437;45.478;9.116;2023-01-28T08:18:37;38.88;;;20.38;;
55575;SDS011;41437;45.478;9.116;2023-01-28T08:21:39;40.45;;;21.73;;
55575;SDS011;41437;45.478;9.116;2023-01-28T08:24:42;43.80;;;21.23;;
55575;SDS011;41437;45.478;9.116;2023-01-28T08:27:43;43.35;;;21.70;;
55575;SDS011;41437;45.478;9.116;2023-01-28T08:30:45;41.33;;;22.17;;
55575;SDS011;41437;45.478;9.116;2023-01-28T08:33:47;39.75;;;22.40;;
55575;SDS011;41437;45.478;9.116;2023-01-28T08:36:48;42.58;;;21.85;;
55575;SDS011;41437;45.478;9.116;2023-01-28T08:39:51;46.92;;;22.85;;
55575;SDS011;41437;45.478;9.116;2023-01-28T08:42:53;43.38;;;22.30;;
55575;SDS011;41437;45.478;9.116;2023-01-28T08:45:55;41.25;;;21.13;;
55575;SDS011;41437;45.478;9.116;2023-01-28T08:48:56;40.63;;;22.55;;
55575;SDS011;41437;45.478;9.116;2023-01-28T08:51:58;39.63;;;22.52;;
55575;SDS011;41437;45.478;9.116;2023-01-28T08:55:03;39.58;;;22.25;;
55575;SDS011;41437;45.478;9.116;2023-01-28T08:58:09;43.13;;;22.75;;
55575;SDS011;41437;45.478;9.116;2023-01-28T09:01:11;40.53;;;22.83;;
55575;SDS011;41437;45.478;9.116;2023-01-28T09:04:13;47.22;;;23.38;;
55575;SDS011;41437;45.478;9.116;2023-01-28T09:07:14;40.75;;;21.67;;
55575;SDS011;41437;45.478;9.116;2023-01-28T09:10:17;44.70;;;22.85;;
55575;SDS011;41437;45.478;9.116;2023-01-28T09:13:21;39.78;;;22.05;;
55575;SDS011;41437;45.478;9.116;2023-01-28T09:16:22;43.10;;;22.73;;
55575;SDS011;41437;45.478;9.116;2023-01-28T09:19:24;43.78;;;22.35;;
55575;SDS011;41437;45.478;9.116;2023-01-28T09:22:26;39.10;;;22.25;;
55575;SDS011;41437;45.478;9.116;2023-01-28T09:25:29;43.10;;;23.77;;
55575;SDS011;41437;45.478;9.116;2023-01-28T09:28:31;41.90;;;22.50;;
55575;SDS011;41437;45.478;9.116;2023-01-28T09:31:33;38.40;;;21.17;;
55575;SDS011;41437;45.478;9.116;2023-01-28T09:34:34;43.95;;;23.13;;
55575;SDS011;41437;45.478;9.116;2023-01-28T09:37:36;40.13;;;22.17;;
55575;SDS011;41437;45.478;9.116;2023-01-28T09:40:40;37.70;;;22.02;;
55575;SDS011;41437;45.478;9.116;2023-01-28T09:43:49;38.20;;;20.63;;
55575;SDS011;41437;45.478;9.116;2023-01-28T09:47:00;45.53;;;24.58;;
55575;SDS011;41437;45.478;9.116;2023-01-28T09:50:05;36.17;;;21.17;;
55575;SDS011;41437;45.478;9.116;2023-01-28T09:53:09;35.75;;;20.88;;
55575;SDS011;41437;45.478;9.116;2023-01-28T09:56:23;39.05;;;19.80;;
55575;SDS011;41437;45.478;9.116;2023-01-28T09:59:27;35.58;;;20.65;;
55575;SDS011;41437;45.478;9.116;2023-01-28T10:02:35;34.35;;;20.15;;
55575;SDS011;41437;45.478;9.116;2023-01-28T10:05:48;36.95;;;21.25;;
55575;SDS011;41437;45.478;9.116;2023-01-28T10:09:01;39.10;;;21.40;;
55575;SDS011;41437;45.478;9.116;2023-01-28T10:12:26;35.40;;;20.65;;
55575;SDS011;41437;45.478;9.116;2023-01-28T10:19:11;36.05;;;20.02;;
55575;SDS011;41437;45.478;9.116;2023-01-28T10:22:19;37.30;;;19.40;;
55575;SDS011;41437;45.478;9.116;2023-01-28T10:25:25;36.05;;;19.77;;
55575;SDS011;41437;45.478;9.116;2023-01-28T10:28:33;35.65;;;19.45;;
55575;SDS011;41437;45.478;9.116;2023-01-28T10:31:38;36.08;;;20.38;;
55575;SDS011;41437;45.478;9.116;2023-01-28T10:34:49;40.83;;;20.75;;
55575;SDS011;41437;45.478;9.116;2023-01-28T10:37:53;35.53;;;18.92;;
55575;SDS011;41437;45.478;9.116;2023-01-28T10:41:02;35.20;;;19.05;;
55575;SDS011;41437;45.478;9.116;2023-01-28T10:44:07;33.05;;;18.92;;
55575;SDS011;41437;45.478;9.116;2023-01-28T10:47:15;41.92;;;20.33;;
55575;SDS011;41437;45.478;9.116;2023-01-28T10:50:25;38.75;;;21.10;;
55575;SDS011;41437;45.478;9.116;2023-01-28T10:53:32;37.70;;;20.60;;
55575;SDS011;41437;45.478;9.116;2023-01-28T10:56:35;36.45;;;20.25;;
55575;SDS011;41437;45.478;9.116;2023-01-28T10:59:39;38.33;;;20.05;;
55575;SDS011;41437;45.478;9.116;2023-01-28T11:02:42;36.42;;;19.65;;
55575;SDS011;41437;45.478;9.116;2023-01-28T11:05:49;35.40;;;19.10;;
55575;SDS011;41437;45.478;9.116;2023-01-28T11:08:51;41.30;;;20.80;;
55575;SDS011;41437;45.478;9.116;2023-01-28T11:11:53;34.97;;;19.58;;
55575;SDS011;41437;45.478;9.116;2023-01-28T11:14:57;36.58;;;19.52;;
55575;SDS011;41437;45.478;9.116;2023-01-28T11:18:00;40.25;;;21.17;;
55575;SDS011;41437;45.478;9.116;2023-01-28T11:21:03;37.87;;;20.43;;
55575;SDS011;41437;45.478;9.116;2023-01-28T11:24:12;39.78;;;20.58;;
55575;SDS011;41437;45.478;9.116;2023-01-28T11:27:17;40.38;;;21.30;;
55575;SDS011;41437;45.478;9.116;2023-01-28T11:30:23;40.55;;;22.42;;
55575;SDS011;41437;45.478;9.116;2023-01-28T11:33:30;37.78;;;20.15;;
55575;SDS011;41437;45.478;9.116;2023-01-28T11:36:37;38.85;;;20.35;;
55575;SDS011;41437;45.478;9.116;2023-01-28T11:39:38;38.28;;;20.92;;
55575;SDS011;41437;45.478;9.116;2023-01-28T11:42:40;40.08;;;20.90;;
55575;SDS011;41437;45.478;9.116;2023-01-28T11:45:45;37.78;;;20.17;;
55575;SDS011;41437;45.478;9.116;2023-01-28T11:48:53;39.05;;;21.45;;
55575;SDS011;41437;45.478;9.116;2023-01-28T11:52:04;41.22;;;22.08;;
55575;SDS011;41437;45.478;9.116;2023-01-28T11:55:20;36.95;;;20.45;;
55575;SDS011;41437;45.478;9.116;2023-01-28T11:58:32;38.88;;;22.13;;
55575;SDS011;41437;45.478;9.116;2023-01-28T12:01:44;34.75;;;19.45;;
55575;SDS011;41437;45.478;9.116;2023-01-28T12:05:02;40.88;;;21.65;;
55575;SDS011;41437;45.478;9.116;2023-01-28T12:08:19;36.42;;;19.40;;
55575;SDS011;41437;45.478;9.116;2023-01-28T12:11:26;42.80;;;21.98;;
55575;SDS011;41437;45.478;9.116;2023-01-28T12:15:03;40.20;;;21.45;;
55575;SDS011;41437;45.478;9.116;2023-01-28T12:18:26;36.92;;;19.85;;
55575;SDS011;41437;45.478;9.116;2023-01-28T12:22:02;36.22;;;20.23;;
55575;SDS011;41437;45.478;9.116;2023-01-28T12:25:18;37.42;;;19.95;;
55575;SDS011;41437;45.478;9.116;2023-01-28T12:28:29;34.55;;;18.95;;
55575;SDS011;41437;45.478;9.116;2023-01-28T12:31:48;39.72;;;19.63;;
55575;SDS011;41437;45.478;9.116;2023-01-28T12:38:45;35.15;;;19.42;;
55575;SDS011;41437;45.478;9.116;2023-01-28T12:41:54;33.58;;;19.33;;
55575;SDS011;41437;45.478;9.116;2023-01-28T12:45:11;36.80;;;19.30;;
55575;SDS011;41437;45.478;9.116;2023-01-28T12:48:17;30.15;;;17.23;;
55575;SDS011;41437;45.478;9.116;2023-01-28T12:51:24;34.53;;;19.38;;
55575;SDS011;41437;45.478;9.116;2023-01-28T12:54:33;32.45;;;18.60;;
55575;SDS011;41437;45.478;9.116;2023-01-28T12:57:39;28.52;;;16.95;;
55575;SDS011;41437;45.478;9.116;2023-01-28T13:00:43;32.35;;;18.42;;
55575;SDS011;41437;45.478;9.116;2023-01-28T13:03:50;29.08;;;16.13;;
55575;SDS011;41437;45.478;9.116;2023-01-28T13:06:57;32.60;;;18.50;;
55575;SDS011;41437;45.478;9.116;2023-01-28T13:10:03;30.65;;;17.55;;
55575;SDS011;41437;45.478;9.116;2023-01-28T13:13:12;29.67;;;16.65;;
55575;SDS011;41437;45.478;9.116;2023-01-28T13:16:18;30.98;;;17.63;;
55575;SDS011;41437;45.478;9.116;2023-01-28T13:19:21;29.38;;;16.60;;
55575;SDS011;41437;45.478;9.116;2023-01-28T13:22:27;31.20;;;17.35;;
55575;SDS011;41437;45.478;9.116;2023-01-28T13:25:31;31.10;;;16.80;;
55575;SDS011;41437;45.478;9.116;2023-01-28T13:31:36;27.58;;;15.80;;
55575;SDS011;41437;45.478;9.116;2023-01-28T13:34:40;33.65;;;18.67;;
55575;SDS011;41437;45.478;9.116;2023-01-28T13:37:44;31.30;;;18.15;;
55575;SDS011;41437;45.478;9.116;2023-01-28T13:40:52;27.92;;;15.82;;
55575;SDS011;41437;45.478;9.116;2023-01-28T13:43:55;29.42;;;16.60;;
55575;SDS011;41437;45.478;9.116;2023-01-28T13:47:10;31.38;;;17.23;;
55575;SDS011;41437;45.478;9.116;2023-01-28T13:50:15;30.98;;;16.70;;
55575;SDS011;41437;45.478;9.116;2023-01-28T13:53:33;30.48;;;17.10;;
55575;SDS011;41437;45.478;9.116;2023-01-28T13:56:48;32.30;;;17.65;;
55575;SDS011;41437;45.478;9.116;2023-01-28T14:00:10;29.20;;;16.95;;
55575;SDS011;41437;45.478;9.116;2023-01-28T14:07:00;33.00;;;16.85;;
55575;SDS011;41437;45.478;9.116;2023-01-28T14:10:19;27.25;;;14.82;;
55575;SDS011;41437;45.478;9.116;2023-01-28T14:13:39;30.20;;;16.13;;
55575;SDS011;41437;45.478;9.116;2023-01-28T14:16:53;30.40;;;17.00;;
55575;SDS011;41437;45.478;9.116;2023-01-28T14:19:58;31.52;;;16.65;;
55575;SDS011;41437;45.478;9.116;2023-01-28T14:23:01;32.65;;;18.00;;
55575;SDS011;41437;45.478;9.116;2023-01-28T14:26:09;29.92;;;16.58;;
55575;SDS011;41437;45.478;9.116;2023-01-28T14:29:24;30.55;;;18.27;;
55575;SDS011;41437;45.478;9.116;2023-01-28T14:32:42;33.90;;;19.00;;
55575;SDS011;41437;45.478;9.116;2023-01-28T14:35:46;32.65;;;17.85;;
55575;SDS011;41437;45.478;9.116;2023-01-28T14:38:49;31.45;;;18.63;;
55575;SDS011;41437;45.478;9.116;2023-01-28T14:41:52;31.42;;;17.50;;
55575;SDS011;41437;45.478;9.116;2023-01-28T14:44:59;33.42;;;17.90;;
55575;SDS011;41437;45.478;9.116;2023-01-28T14:48:17;30.80;;;18.65;;
55575;SDS011;41437;45.478;9.116;2023-01-28T14:51:31;34.67;;;19.27;;
55575;SDS011;41437;45.478;9.116;2023-01-28T14:54:43;31.45;;;18.50;;
55575;SDS011;41437;45.478;9.116;2023-01-28T14:57:57;31.98;;;18.00;;
55575;SDS011;41437;45.478;9.116;2023-01-28T15:01:01;34.28;;;17.77;;
55575;SDS011;41437;45.478;9.116;2023-01-28T15:04:03;29.58;;;17.98;;
55575;SDS011;41437;45.478;9.116;2023-01-28T15:07:14;37.20;;;19.25;;
55575;SDS011;41437;45.478;9.116;2023-01-28T15:10:18;31.83;;;17.85;;
55575;SDS011;41437;45.478;9.116;2023-01-28T15:13:24;32.08;;;18.45;;
55575;SDS011;41437;45.478;9.116;2023-01-28T15:16:28;30.77;;;17.45;;
55575;SDS011;41437;45.478;9.116;2023-01-28T15:19:31;31.17;;;17.90;;
55575;SDS011;41437;45.478;9.116;2023-01-28T15:22:34;31.15;;;17.42;;
55575;SDS011;41437;45.478;9.116;2023-01-28T15:25:37;31.60;;;17.33;;
55575;SDS011;41437;45.478;9.116;2023-01-28T15:28:41;28.85;;;16.80;;
55575;SDS011;41437;45.478;9.116;2023-01-28T15:31:46;29.58;;;16.88;;
55575;SDS011;41437;45.478;9.116;2023-01-28T15:34:50;28.23;;;16.90;;
55575;SDS011;41437;45.478;9.116;2023-01-28T15:37:51;29.10;;;16.50;;
55575;SDS011;41437;45.478;9.116;2023-01-28T15:40:53;30.33;;;16.40;;
55575;SDS011;41437;45.478;9.116;2023-01-28T15:43:59;29.65;;;16.98;;
55575;SDS011;41437;45.478;9.116;2023-01-28T15:47:02;29.85;;;16.23;;
55575;SDS011;41437;45.478;9.116;2023-01-28T15:50:16;28.45;;;16.10;;
55575;SDS011;41437;45.478;9.116;2023-01-28T15:53:20;25.15;;;14.98;;
55575;SDS011;41437;45.478;9.116;2023-01-28T15:56:23;25.60;;;15.02;;
55575;SDS011;41437;45.478;9.116;2023-01-28T16:02:31;25.83;;;13.95;;
55575;SDS011;41437;45.478;9.116;2023-01-28T16:05:34;26.55;;;13.77;;
55575;SDS011;41437;45.478;9.116;2023-01-28T16:08:39;24.90;;;13.13;;
55575;SDS011;41437;45.478;9.116;2023-01-28T16:11:45;22.70;;;12.82;;
55575;SDS011;41437;45.478;9.116;2023-01-28T16:14:49;25.83;;;13.73;;
55575;SDS011;41437;45.478;9.116;2023-01-28T16:17:53;44.03;;;23.58;;
55575;SDS011;41437;45.478;9.116;2023-01-28T16:20:55;59.03;;;31.75;;
55575;SDS011;41437;45.478;9.116;2023-01-28T16:23:58;57.67;;;30.85;;
55575;SDS011;41437;45.478;9.116;2023-01-28T16:27:02;47.53;;;25.92;;
55575;SDS011;41437;45.478;9.116;2023-01-28T16:30:08;41.97;;;22.63;;
55575;SDS011;41437;45.478;9.116;2023-01-28T16:33:16;39.55;;;21.05;;
55575;SDS011;41437;45.478;9.116;2023-01-28T16:36:19;43.70;;;24.42;;
55575;SDS011;41437;45.478;9.116;2023-01-28T16:39:20;41.90;;;23.98;;
55575;SDS011;41437;45.478;9.116;2023-01-28T16:42:22;43.78;;;23.75;;
55575;SDS011;41437;45.478;9.116;2023-01-28T16:45:26;39.25;;;22.20;;
55575;SDS011;41437;45.478;9.116;2023-01-28T16:48:28;45.63;;;23.60;;
55575;SDS011;41437;45.478;9.116;2023-01-28T16:51:29;42.70;;;22.90;;
55575;SDS011;41437;45.478;9.116;2023-01-28T16:54:31;40.30;;;23.15;;
55575;SDS011;41437;45.478;9.116;2023-01-28T16:57:34;39.58;;;22.25;;
55575;SDS011;41437;45.478;9.116;2023-01-28T17:00:37;41.67;;;23.27;;
55575;SDS011;41437;45.478;9.116;2023-01-28T17:03:39;41.78;;;21.90;;
55575;SDS011;41437;45.478;9.116;2023-01-28T17:06:41;42.45;;;22.70;;
55575;SDS011;41437;45.478;9.116;2023-01-28T17:09:44;41.60;;;22.60;;
55575;SDS011;41437;45.478;9.116;2023-01-28T17:12:46;43.03;;;23.63;;
55575;SDS011;41437;45.478;9.116;2023-01-28T17:15:49;38.65;;;22.30;;
55575;SDS011;41437;45.478;9.116;2023-01-28T17:18:51;42.25;;;22.77;;
55575;SDS011;41437;45.478;9.116;2023-01-28T17:21:56;43.30;;;23.00;;
55575;SDS011;41437;45.478;9.116;2023-01-28T17:24:58;42.15;;;22.33;;
55575;SDS011;41437;45.478;9.116;2023-01-28T17:28:00;42.00;;;22.65;;
55575;SDS011;41437;45.478;9.116;2023-01-28T17:31:05;43.00;;;22.95;;
55575;SDS011;41437;45.478;9.116;2023-01-28T17:34:07;41.00;;;23.02;;
55575;SDS011;41437;45.478;9.116;2023-01-28T17:37:13;37.78;;;21.50;;
55575;SDS011;41437;45.478;9.116;2023-01-28T17:40:14;43.80;;;23.65;;
55575;SDS011;41437;45.478;9.116;2023-01-28T17:43:16;43.63;;;22.85;;
55575;SDS011;41437;45.478;9.116;2023-01-28T17:46:20;39.53;;;22.77;;
55575;SDS011;41437;45.478;9.116;2023-01-28T17:49:23;57.22;;;38.33;;
55575;SDS011;41437;45.478;9.116;2023-01-28T17:52:24;51.08;;;32.47;;
55575;SDS011;41437;45.478;9.116;2023-01-28T17:55:26;49.78;;;29.27;;
55575;SDS011;41437;45.478;9.116;2023-01-28T17:58:28;48.88;;;27.35;;
55575;SDS011;41437;45.478;9.116;2023-01-28T18:01:32;46.13;;;27.40;;
55575;SDS011;41437;45.478;9.116;2023-01-28T18:04:36;43.25;;;26.83;;
55575;SDS011;41437;45.478;9.116;2023-01-28T18:07:38;42.72;;;25.35;;
55575;SDS011;41437;45.478;9.116;2023-01-28T18:10:41;44.80;;;25.92;;
55575;SDS011;41437;45.478;9.116;2023-01-28T18:13:43;45.78;;;26.65;;
55575;SDS011;41437;45.478;9.116;2023-01-28T18:16:47;45.15;;;24.63;;
55575;SDS011;41437;45.478;9.116;2023-01-28T18:19:49;42.63;;;25.10;;
55575;SDS011;41437;45.478;9.116;2023-01-28T18:22:51;44.95;;;25.23;;
55575;SDS011;41437;45.478;9.116;2023-01-28T18:25:54;46.33;;;25.27;;
55575;SDS011;41437;45.478;9.116;2023-01-28T18:28:57;42.53;;;23.80;;
55575;SDS011;41437;45.478;9.116;2023-01-28T18:31:59;43.08;;;23.80;;
55575;SDS011;41437;45.478;9.116;2023-01-28T18:35:01;39.28;;;22.98;;